Refton, Pennsylvania
Current Conditions -  °F | °C
As of 1:53 PM on Friday 28 Nov 2014 (Local Time) from KLNS Reporting Station
Few Clouds Few Clouds  
Wind Chill: 25°   Ceiling: Unl
Heat Index: 34°   Visibility: 10mi
Dew Point: 17°   Wind: 13mph
Humidity: 50%   Direction: 290°WNW
Pressure: 30.22"   Gusts: NA
Location:  39.95°N, 76.23°W
Report Text: KLNS 281853Z 29011KT 10SM FEW050 01/M08 A3022 RMK AO2 SLP238 T00111083
Loading
Personal Weather Stations






























Interactive Weather Map New forecast layout! Learn more

10-Day Weather Forecast

Advertisements
Track Severe Weather on mobile